sensor_id;sensor_type;location;lat;lon;timestamp;temperature;humidity
33865;DHT22;20159;51.072;13.526;2022-09-09T00:03:59;16.50;90.00
33865;DHT22;20159;51.072;13.526;2022-09-09T00:06:48;16.60;90.00
33865;DHT22;20159;51.072;13.526;2022-09-09T00:09:18;16.60;90.10
33865;DHT22;20159;51.072;13.526;2022-09-09T00:12:00;16.60;90.00
33865;DHT22;20159;51.072;13.526;2022-09-09T00:18:15;16.60;89.60
33865;DHT22;20159;51.072;13.526;2022-09-09T00:20:41;16.50;89.80
33865;DHT22;20159;51.072;13.526;2022-09-09T00:23:25;16.60;90.00
33865;DHT22;20159;51.072;13.526;2022-09-09T00:28:24;16.50;89.60
33865;DHT22;20159;51.072;13.526;2022-09-09T00:30:51;16.50;89.70
33865;DHT22;20159;51.072;13.526;2022-09-09T00:33:20;16.50;89.50
33865;DHT22;20159;51.072;13.526;2022-09-09T00:35:50;16.50;89.50
33865;DHT22;20159;51.072;13.526;2022-09-09T00:38:25;16.50;89.80
33865;DHT22;20159;51.072;13.526;2022-09-09T00:43:30;16.50;89.80
33865;DHT22;20159;51.072;13.526;2022-09-09T00:46:27;16.50;89.80
33865;DHT22;20159;51.072;13.526;2022-09-09T00:57:32;16.50;89.70
33865;DHT22;20159;51.072;13.526;2022-09-09T01:06:13;16.50;89.60
33865;DHT22;20159;51.072;13.526;2022-09-09T01:22:25;16.40;89.60
33865;DHT22;20159;51.072;13.526;2022-09-09T01:27:36;16.40;89.40
33865;DHT22;20159;51.072;13.526;2022-09-09T01:30:09;16.30;89.50
33865;DHT22;20159;51.072;13.526;2022-09-09T01:32:44;16.30;89.60
33865;DHT22;20159;51.072;13.526;2022-09-09T01:35:15;16.20;89.70
33865;DHT22;20159;51.072;13.526;2022-09-09T01:37:44;16.20;89.70
33865;DHT22;20159;51.072;13.526;2022-09-09T01:40:10;16.20;89.80
33865;DHT22;20159;51.072;13.526;2022-09-09T01:42:36;16.20;89.70
33865;DHT22;20159;51.072;13.526;2022-09-09T01:45:02;16.10;89.70
33865;DHT22;20159;51.072;13.526;2022-09-09T01:47:28;16.10;89.80
33865;DHT22;20159;51.072;13.526;2022-09-09T01:49:54;16.00;89.60
33865;DHT22;20159;51.072;13.526;2022-09-09T01:52:19;16.00;89.80
33865;DHT22;20159;51.072;13.526;2022-09-09T01:54:45;16.00;90.00
33865;DHT22;20159;51.072;13.526;2022-09-09T01:57:28;16.00;90.00
33865;DHT22;20159;51.072;13.526;2022-09-09T02:02:39;15.90;90.00
33865;DHT22;20159;51.072;13.526;2022-09-09T02:07:57;15.80;90.30
33865;DHT22;20159;51.072;13.526;2022-09-09T02:13:20;15.80;90.30
33865;DHT22;20159;51.072;13.526;2022-09-09T02:15:58;15.80;90.40
33865;DHT22;20159;51.072;13.526;2022-09-09T02:18:53;15.80;90.50
33865;DHT22;20159;51.072;13.526;2022-09-09T02:21:22;15.80;90.50
33865;DHT22;20159;51.072;13.526;2022-09-09T02:23:49;15.80;90.40
33865;DHT22;20159;51.072;13.526;2022-09-09T02:26:17;15.90;90.40
33865;DHT22;20159;51.072;13.526;2022-09-09T02:28:49;15.90;90.50
33865;DHT22;20159;51.072;13.526;2022-09-09T02:31:20;15.90;90.50
33865;DHT22;20159;51.072;13.526;2022-09-09T02:33:52;15.80;90.50
33865;DHT22;20159;51.072;13.526;2022-09-09T02:36:20;15.90;90.50
33865;DHT22;20159;51.072;13.526;2022-09-09T02:38:47;16.00;90.50
33865;DHT22;20159;51.072;13.526;2022-09-09T02:41:17;16.00;90.40
33865;DHT22;20159;51.072;13.526;2022-09-09T02:43:44;16.00;90.30
33865;DHT22;20159;51.072;13.526;2022-09-09T02:48:59;16.00;90.30
33865;DHT22;20159;51.072;13.526;2022-09-09T02:51:45;16.00;90.10
33865;DHT22;20159;51.072;13.526;2022-09-09T02:54:27;16.00;90.20
33865;DHT22;20159;51.072;13.526;2022-09-09T02:57:01;16.10;90.20
33865;DHT22;20159;51.072;13.526;2022-09-09T02:59:28;16.10;90.10
33865;DHT22;20159;51.072;13.526;2022-09-09T03:01:55;16.20;90.20
33865;DHT22;20159;51.072;13.526;2022-09-09T03:04:21;13.90;89.20
33865;DHT22;20159;51.072;13.526;2022-09-09T03:06:47;16.10;90.00
33865;DHT22;20159;51.072;13.526;2022-09-09T03:09:12;16.10;90.10
33865;DHT22;20159;51.072;13.526;2022-09-09T03:11:38;16.10;90.00
33865;DHT22;20159;51.072;13.526;2022-09-09T03:14:04;16.10;90.00
33865;DHT22;20159;51.072;13.526;2022-09-09T03:16:29;16.10;89.90
33865;DHT22;20159;51.072;13.526;2022-09-09T03:18:55;16.10;90.00
33865;DHT22;20159;51.072;13.526;2022-09-09T03:21:21;16.10;90.00
33865;DHT22;20159;51.072;13.526;2022-09-09T03:23:46;16.10;89.80
33865;DHT22;20159;51.072;13.526;2022-09-09T03:26:12;16.10;89.80
33865;DHT22;20159;51.072;13.526;2022-09-09T03:28:40;16.10;89.90
33865;DHT22;20159;51.072;13.526;2022-09-09T03:31:06;16.10;90.00
33865;DHT22;20159;51.072;13.526;2022-09-09T03:33:39;16.10;90.00
33865;DHT22;20159;51.072;13.526;2022-09-09T03:36:06;16.10;90.00
33865;DHT22;20159;51.072;13.526;2022-09-09T03:38:33;16.10;89.80
33865;DHT22;20159;51.072;13.526;2022-09-09T03:40:59;16.00;89.70
33865;DHT22;20159;51.072;13.526;2022-09-09T03:43:26;16.00;89.80
33865;DHT22;20159;51.072;13.526;2022-09-09T03:45:52;16.00;90.00
33865;DHT22;20159;51.072;13.526;2022-09-09T03:48:18;16.00;89.90
33865;DHT22;20159;51.072;13.526;2022-09-09T03:50:49;16.00;89.90
33865;DHT22;20159;51.072;13.526;2022-09-09T03:53:16;16.00;89.90
33865;DHT22;20159;51.072;13.526;2022-09-09T03:55:48;16.00;90.00
33865;DHT22;20159;51.072;13.526;2022-09-09T03:58:16;16.00;89.80
33865;DHT22;20159;51.072;13.526;2022-09-09T04:00:44;16.00;89.90
33865;DHT22;20159;51.072;13.526;2022-09-09T04:03:17;14.50;89.10
33865;DHT22;20159;51.072;13.526;2022-09-09T04:05:43;16.00;89.90
33865;DHT22;20159;51.072;13.526;2022-09-09T04:08:09;16.10;89.90
33865;DHT22;20159;51.072;13.526;2022-09-09T04:10:35;16.10;90.00
33865;DHT22;20159;51.072;13.526;2022-09-09T04:13:04;16.10;90.00
33865;DHT22;20159;51.072;13.526;2022-09-09T04:15:30;16.10;90.00
33865;DHT22;20159;51.072;13.526;2022-09-09T04:17:55;16.10;89.90
33865;DHT22;20159;51.072;13.526;2022-09-09T04:20:21;16.20;90.00
33865;DHT22;20159;51.072;13.526;2022-09-09T04:22:47;16.10;90.00
33865;DHT22;20159;51.072;13.526;2022-09-09T04:25:13;16.10;90.00
33865;DHT22;20159;51.072;13.526;2022-09-09T04:27:38;16.10;89.90
33865;DHT22;20159;51.072;13.526;2022-09-09T04:30:04;16.10;90.00
33865;DHT22;20159;51.072;13.526;2022-09-09T04:32:32;16.20;90.10
33865;DHT22;20159;51.072;13.526;2022-09-09T04:34:58;16.20;90.00
33865;DHT22;20159;51.072;13.526;2022-09-09T04:37:23;16.20;90.00
33865;DHT22;20159;51.072;13.526;2022-09-09T04:39:50;16.20;90.00
33865;DHT22;20159;51.072;13.526;2022-09-09T04:42:15;16.20;90.10
33865;DHT22;20159;51.072;13.526;2022-09-09T04:44:43;16.20;90.10
33865;DHT22;20159;51.072;13.526;2022-09-09T04:47:09;16.20;90.10
33865;DHT22;20159;51.072;13.526;2022-09-09T04:49:35;16.20;90.00
33865;DHT22;20159;51.072;13.526;2022-09-09T04:52:02;16.20;90.10
33865;DHT22;20159;51.072;13.526;2022-09-09T04:54:28;16.20;90.10
33865;DHT22;20159;51.072;13.526;2022-09-09T04:56:54;16.20;90.10
33865;DHT22;20159;51.072;13.526;2022-09-09T04:59:20;16.20;90.10
33865;DHT22;20159;51.072;13.526;2022-09-09T05:01:45;16.20;90.10
33865;DHT22;20159;51.072;13.526;2022-09-09T05:04:11;16.30;90.10
33865;DHT22;20159;51.072;13.526;2022-09-09T05:06:36;16.30;90.00
33865;DHT22;20159;51.072;13.526;2022-09-09T05:09:02;16.30;90.10
33865;DHT22;20159;51.072;13.526;2022-09-09T05:11:29;16.40;90.20
33865;DHT22;20159;51.072;13.526;2022-09-09T05:13:55;16.40;90.20
33865;DHT22;20159;51.072;13.526;2022-09-09T05:16:22;16.40;90.20
33865;DHT22;20159;51.072;13.526;2022-09-09T05:18:48;16.50;90.30
33865;DHT22;20159;51.072;13.526;2022-09-09T05:21:16;16.50;90.30
33865;DHT22;20159;51.072;13.526;2022-09-09T05:23:42;16.50;90.20
33865;DHT22;20159;51.072;13.526;2022-09-09T05:26:12;16.60;90.30
33865;DHT22;20159;51.072;13.526;2022-09-09T05:28:39;16.60;90.10
33865;DHT22;20159;51.072;13.526;2022-09-09T05:31:06;16.70;90.00
33865;DHT22;20159;51.072;13.526;2022-09-09T05:33:37;16.80;90.00
33865;DHT22;20159;51.072;13.526;2022-09-09T05:36:08;16.90;89.80
33865;DHT22;20159;51.072;13.526;2022-09-09T05:38:34;16.90;89.80
33865;DHT22;20159;51.072;13.526;2022-09-09T05:41:01;17.00;90.00
33865;DHT22;20159;51.072;13.526;2022-09-09T05:43:28;17.10;89.80
33865;DHT22;20159;51.072;13.526;2022-09-09T05:46:21;17.30;89.60
33865;DHT22;20159;51.072;13.526;2022-09-09T05:48:49;17.40;89.30
33865;DHT22;20159;51.072;13.526;2022-09-09T05:51:20;17.50;88.30
33865;DHT22;20159;51.072;13.526;2022-09-09T05:53:47;17.60;88.70
33865;DHT22;20159;51.072;13.526;2022-09-09T05:56:17;17.70;88.50
33865;DHT22;20159;51.072;13.526;2022-09-09T05:58:44;17.80;88.60
33865;DHT22;20159;51.072;13.526;2022-09-09T06:01:17;17.90;88.10
33865;DHT22;20159;51.072;13.526;2022-09-09T06:03:45;18.00;87.40
33865;DHT22;20159;51.072;13.526;2022-09-09T06:06:13;18.10;87.80
33865;DHT22;20159;51.072;13.526;2022-09-09T06:08:41;18.20;87.60
33865;DHT22;20159;51.072;13.526;2022-09-09T06:11:28;18.30;87.60
33865;DHT22;20159;51.072;13.526;2022-09-09T06:13:56;18.40;87.90
33865;DHT22;20159;51.072;13.526;2022-09-09T06:16:23;18.60;88.10
33865;DHT22;20159;51.072;13.526;2022-09-09T06:18:49;18.60;87.90
33865;DHT22;20159;51.072;13.526;2022-09-09T06:21:20;18.70;88.40
33865;DHT22;20159;51.072;13.526;2022-09-09T06:23:46;18.80;88.00
33865;DHT22;20159;51.072;13.526;2022-09-09T06:28:43;19.00;87.80
33865;DHT22;20159;51.072;13.526;2022-09-09T06:31:10;19.10;87.50
33865;DHT22;20159;51.072;13.526;2022-09-09T06:33:38;19.20;87.80
33865;DHT22;20159;51.072;13.526;2022-09-09T06:36:26;19.30;88.20
33865;DHT22;20159;51.072;13.526;2022-09-09T06:38:52;19.50;88.20
33865;DHT22;20159;51.072;13.526;2022-09-09T06:41:20;19.70;88.10
33865;DHT22;20159;51.072;13.526;2022-09-09T06:43:46;19.80;89.20
33865;DHT22;20159;51.072;13.526;2022-09-09T06:46:19;20.00;89.00
33865;DHT22;20159;51.072;13.526;2022-09-09T06:48:47;20.20;88.70
33865;DHT22;20159;51.072;13.526;2022-09-09T06:51:17;20.40;90.00
33865;DHT22;20159;51.072;13.526;2022-09-09T06:53:44;20.60;87.60
33865;DHT22;20159;51.072;13.526;2022-09-09T06:58:37;21.20;87.20
33865;DHT22;20159;51.072;13.526;2022-09-09T07:01:05;21.50;86.80
33865;DHT22;20159;51.072;13.526;2022-09-09T07:03:30;21.60;85.50
33865;DHT22;20159;51.072;13.526;2022-09-09T07:05:56;21.80;84.90
33865;DHT22;20159;51.072;13.526;2022-09-09T07:08:22;21.90;86.80
33865;DHT22;20159;51.072;13.526;2022-09-09T07:10:47;22.10;87.70
33865;DHT22;20159;51.072;13.526;2022-09-09T07:13:13;22.30;85.50
33865;DHT22;20159;51.072;13.526;2022-09-09T07:15:41;22.50;84.30
33865;DHT22;20159;51.072;13.526;2022-09-09T07:18:06;22.80;84.00
33865;DHT22;20159;51.072;13.526;2022-09-09T07:20:32;22.90;82.30
33865;DHT22;20159;51.072;13.526;2022-09-09T07:22:57;23.10;80.30
33865;DHT22;20159;51.072;13.526;2022-09-09T07:25:24;23.20;79.70
33865;DHT22;20159;51.072;13.526;2022-09-09T07:27:53;23.40;80.10
33865;DHT22;20159;51.072;13.526;2022-09-09T07:30:18;23.50;79.30
33865;DHT22;20159;51.072;13.526;2022-09-09T07:32:44;23.70;78.60
33865;DHT22;20159;51.072;13.526;2022-09-09T07:35:10;23.90;79.30
33865;DHT22;20159;51.072;13.526;2022-09-09T07:37:37;24.20;79.30
33865;DHT22;20159;51.072;13.526;2022-09-09T07:40:03;24.50;79.10
33865;DHT22;20159;51.072;13.526;2022-09-09T07:42:29;24.90;80.30
33865;DHT22;20159;51.072;13.526;2022-09-09T07:44:54;25.30;78.10
33865;DHT22;20159;51.072;13.526;2022-09-09T07:47:20;25.70;77.40
33865;DHT22;20159;51.072;13.526;2022-09-09T07:49:46;26.10;79.50
33865;DHT22;20159;51.072;13.526;2022-09-09T07:52:12;26.60;77.10
33865;DHT22;20159;51.072;13.526;2022-09-09T07:54:38;27.10;75.20
33865;DHT22;20159;51.072;13.526;2022-09-09T07:57:04;27.50;73.00
33865;DHT22;20159;51.072;13.526;2022-09-09T07:59:29;27.90;71.30
33865;DHT22;20159;51.072;13.526;2022-09-09T08:01:55;28.00;68.70
33865;DHT22;20159;51.072;13.526;2022-09-09T08:04:22;28.10;66.80
33865;DHT22;20159;51.072;13.526;2022-09-09T08:06:54;28.00;65.50
33865;DHT22;20159;51.072;13.526;2022-09-09T08:09:20;27.90;64.20
33865;DHT22;20159;51.072;13.526;2022-09-09T08:11:46;27.80;64.10
33865;DHT22;20159;51.072;13.526;2022-09-09T08:14:12;27.70;63.90
33865;DHT22;20159;51.072;13.526;2022-09-09T08:16:43;27.50;62.70
33865;DHT22;20159;51.072;13.526;2022-09-09T08:19:09;27.40;63.30
33865;DHT22;20159;51.072;13.526;2022-09-09T08:21:36;27.20;63.80
33865;DHT22;20159;51.072;13.526;2022-09-09T08:24:04;27.10;64.30
33865;DHT22;20159;51.072;13.526;2022-09-09T08:26:41;27.00;64.30
33865;DHT22;20159;51.072;13.526;2022-09-09T08:29:08;26.80;62.70
33865;DHT22;20159;51.072;13.526;2022-09-09T08:31:37;26.60;62.40
33865;DHT22;20159;51.072;13.526;2022-09-09T08:34:04;26.60;63.60
33865;DHT22;20159;51.072;13.526;2022-09-09T08:36:37;26.60;64.60
33865;DHT22;20159;51.072;13.526;2022-09-09T08:39:04;26.70;65.50
33865;DHT22;20159;51.072;13.526;2022-09-09T08:52:14;27.30;62.60
33865;DHT22;20159;51.072;13.526;2022-09-09T08:54:41;27.40;63.60
33865;DHT22;20159;51.072;13.526;2022-09-09T08:57:18;27.30;61.90
33865;DHT22;20159;51.072;13.526;2022-09-09T08:59:45;27.40;63.80
33865;DHT22;20159;51.072;13.526;2022-09-09T09:02:24;27.50;63.80
33865;DHT22;20159;51.072;13.526;2022-09-09T09:05:23;27.60;60.60
33865;DHT22;20159;51.072;13.526;2022-09-09T09:08:13;27.70;61.30
33865;DHT22;20159;51.072;13.526;2022-09-09T09:10:50;27.70;61.30
33865;DHT22;20159;51.072;13.526;2022-09-09T09:13:26;27.70;59.60
33865;DHT22;20159;51.072;13.526;2022-09-09T09:16:00;27.60;59.70
33865;DHT22;20159;51.072;13.526;2022-09-09T09:18:26;27.60;59.20
33865;DHT22;20159;51.072;13.526;2022-09-09T09:21:12;27.60;60.00
33865;DHT22;20159;51.072;13.526;2022-09-09T09:23:47;27.40;59.60
33865;DHT22;20159;51.072;13.526;2022-09-09T09:26:16;27.30;58.40
33865;DHT22;20159;51.072;13.526;2022-09-09T09:28:42;27.20;59.00
33865;DHT22;20159;51.072;13.526;2022-09-09T09:31:10;27.00;59.70
33865;DHT22;20159;51.072;13.526;2022-09-09T09:36:12;26.90;60.60
33865;DHT22;20159;51.072;13.526;2022-09-09T09:38:55;26.90;60.80
33865;DHT22;20159;51.072;13.526;2022-09-09T09:41:36;26.90;60.40
33865;DHT22;20159;51.072;13.526;2022-09-09T09:44:03;26.90;60.20
33865;DHT22;20159;51.072;13.526;2022-09-09T09:46:29;27.00;60.70
33865;DHT22;20159;51.072;13.526;2022-09-09T09:49:03;27.00;60.30
33865;DHT22;20159;51.072;13.526;2022-09-09T09:51:31;27.10;60.60
33865;DHT22;20159;51.072;13.526;2022-09-09T09:54:27;27.20;62.80
33865;DHT22;20159;51.072;13.526;2022-09-09T09:56:54;27.30;61.00
33865;DHT22;20159;51.072;13.526;2022-09-09T09:59:33;27.40;60.60
33865;DHT22;20159;51.072;13.526;2022-09-09T10:04:44;27.60;60.80
33865;DHT22;20159;51.072;13.526;2022-09-09T10:07:19;27.70;62.30
33865;DHT22;20159;51.072;13.526;2022-09-09T10:09:45;27.80;62.10
33865;DHT22;20159;51.072;13.526;2022-09-09T10:18:36;28.20;60.70
33865;DHT22;20159;51.072;13.526;2022-09-09T10:30:29;28.20;55.80
33865;DHT22;20159;51.072;13.526;2022-09-09T10:33:03;28.10;57.20
33865;DHT22;20159;51.072;13.526;2022-09-09T10:35:58;28.00;57.90
33865;DHT22;20159;51.072;13.526;2022-09-09T10:38:40;27.90;58.60
33865;DHT22;20159;51.072;13.526;2022-09-09T10:41:18;27.80;58.00
33865;DHT22;20159;51.072;13.526;2022-09-09T10:55:20;27.60;60.80
33865;DHT22;20159;51.072;13.526;2022-09-09T10:57:48;27.60;60.60
33865;DHT22;20159;51.072;13.526;2022-09-09T11:00:19;27.60;61.10
33865;DHT22;20159;51.072;13.526;2022-09-09T11:02:49;27.60;61.10
33865;DHT22;20159;51.072;13.526;2022-09-09T11:08:13;27.70;58.90
33865;DHT22;20159;51.072;13.526;2022-09-09T11:13:24;27.80;58.40
33865;DHT22;20159;51.072;13.526;2022-09-09T11:16:22;27.80;58.00
33865;DHT22;20159;51.072;13.526;2022-09-09T11:18:50;27.80;58.30
33865;DHT22;20159;51.072;13.526;2022-09-09T11:21:28;27.70;58.20
33865;DHT22;20159;51.072;13.526;2022-09-09T11:23:59;27.80;57.50
33865;DHT22;20159;51.072;13.526;2022-09-09T11:26:35;27.80;58.10
33865;DHT22;20159;51.072;13.526;2022-09-09T11:32:03;27.90;56.20
33865;DHT22;20159;51.072;13.526;2022-09-09T11:35:14;28.00;56.90
33865;DHT22;20159;51.072;13.526;2022-09-09T11:40:36;28.10;57.80
33865;DHT22;20159;51.072;13.526;2022-09-09T11:43:12;28.20;57.70
33865;DHT22;20159;51.072;13.526;2022-09-09T11:45:40;28.20;55.30
33865;DHT22;20159;51.072;13.526;2022-09-09T11:48:31;28.20;55.50
33865;DHT22;20159;51.072;13.526;2022-09-09T11:50:59;28.20;55.80
33865;DHT22;20159;51.072;13.526;2022-09-09T11:53:25;28.20;54.90
33865;DHT22;20159;51.072;13.526;2022-09-09T11:56:23;28.10;56.30
33865;DHT22;20159;51.072;13.526;2022-09-09T11:59:22;28.10;54.70
33865;DHT22;20159;51.072;13.526;2022-09-09T12:01:56;28.00;55.40
33865;DHT22;20159;51.072;13.526;2022-09-09T12:12:34;27.90;54.60
33865;DHT22;20159;51.072;13.526;2022-09-09T12:17:47;27.90;54.20
33865;DHT22;20159;51.072;13.526;2022-09-09T12:20:15;27.90;54.10
33865;DHT22;20159;51.072;13.526;2022-09-09T12:23:11;27.90;55.30
33865;DHT22;20159;51.072;13.526;2022-09-09T12:25:48;28.00;54.70
33865;DHT22;20159;51.072;13.526;2022-09-09T12:28:22;28.10;54.50
33865;DHT22;20159;51.072;13.526;2022-09-09T12:31:12;28.10;54.30
33865;DHT22;20159;51.072;13.526;2022-09-09T12:33:43;28.20;53.30
33865;DHT22;20159;51.072;13.526;2022-09-09T12:36:16;28.20;53.70
33865;DHT22;20159;51.072;13.526;2022-09-09T12:38:44;28.20;51.60
33865;DHT22;20159;51.072;13.526;2022-09-09T12:41:22;28.20;52.00
33865;DHT22;20159;51.072;13.526;2022-09-09T12:43:48;28.10;49.80
33865;DHT22;20159;51.072;13.526;2022-09-09T12:46:22;28.10;51.70
33865;DHT22;20159;51.072;13.526;2022-09-09T12:48:51;28.10;51.20
33865;DHT22;20159;51.072;13.526;2022-09-09T12:51:44;28.00;51.40
33865;DHT22;20159;51.072;13.526;2022-09-09T12:54:13;27.90;52.70
33865;DHT22;20159;51.072;13.526;2022-09-09T12:56:39;27.90;53.30
33865;DHT22;20159;51.072;13.526;2022-09-09T12:59:05;27.90;55.40
33865;DHT22;20159;51.072;13.526;2022-09-09T13:01:32;28.00;55.30
33865;DHT22;20159;51.072;13.526;2022-09-09T13:04:00;28.10;55.40
33865;DHT22;20159;51.072;13.526;2022-09-09T13:06:29;28.30;55.10
33865;DHT22;20159;51.072;13.526;2022-09-09T13:08:59;28.60;55.10
33865;DHT22;20159;51.072;13.526;2022-09-09T13:11:30;28.90;55.00
33865;DHT22;20159;51.072;13.526;2022-09-09T13:13:57;29.20;52.90
33865;DHT22;20159;51.072;13.526;2022-09-09T13:16:26;29.50;51.90
33865;DHT22;20159;51.072;13.526;2022-09-09T13:18:55;29.80;52.10
33865;DHT22;20159;51.072;13.526;2022-09-09T13:21:31;30.00;51.50
33865;DHT22;20159;51.072;13.526;2022-09-09T13:23:57;30.20;50.10
33865;DHT22;20159;51.072;13.526;2022-09-09T13:26:28;30.50;50.20
33865;DHT22;20159;51.072;13.526;2022-09-09T13:29:07;30.80;50.40
33865;DHT22;20159;51.072;13.526;2022-09-09T13:31:36;31.10;49.90
33865;DHT22;20159;51.072;13.526;2022-09-09T13:34:11;31.30;49.60
33865;DHT22;20159;51.072;13.526;2022-09-09T13:36:38;31.50;47.90
33865;DHT22;20159;51.072;13.526;2022-09-09T13:39:15;31.70;47.30
33865;DHT22;20159;51.072;13.526;2022-09-09T13:41:44;31.80;46.90
33865;DHT22;20159;51.072;13.526;2022-09-09T13:44:28;31.80;47.40
33865;DHT22;20159;51.072;13.526;2022-09-09T13:47:18;31.70;46.80
33865;DHT22;20159;51.072;13.526;2022-09-09T13:49:45;31.50;46.20
33865;DHT22;20159;51.072;13.526;2022-09-09T13:52:14;31.40;45.80
33865;DHT22;20159;51.072;13.526;2022-09-09T13:54:41;31.10;45.80
33865;DHT22;20159;51.072;13.526;2022-09-09T13:59:44;30.70;45.60
33865;DHT22;20159;51.072;13.526;2022-09-09T14:02:10;30.50;45.80
33865;DHT22;20159;51.072;13.526;2022-09-09T14:04:35;30.40;46.50
33865;DHT22;20159;51.072;13.526;2022-09-09T14:07:01;30.20;46.40
33865;DHT22;20159;51.072;13.526;2022-09-09T14:09:27;29.90;46.80
33865;DHT22;20159;51.072;13.526;2022-09-09T14:11:53;29.80;47.10
33865;DHT22;20159;51.072;13.526;2022-09-09T14:14:20;29.60;47.80
33865;DHT22;20159;51.072;13.526;2022-09-09T14:16:45;29.50;47.10
33865;DHT22;20159;51.072;13.526;2022-09-09T14:19:11;29.40;47.00
33865;DHT22;20159;51.072;13.526;2022-09-09T14:21:37;29.30;48.20
33865;DHT22;20159;51.072;13.526;2022-09-09T14:24:02;29.30;48.20
33865;DHT22;20159;51.072;13.526;2022-09-09T14:26:28;29.40;47.80
33865;DHT22;20159;51.072;13.526;2022-09-09T14:28:55;29.50;48.40
33865;DHT22;20159;51.072;13.526;2022-09-09T14:31:21;29.50;47.20
33865;DHT22;20159;51.072;13.526;2022-09-09T14:33:47;29.70;47.90
33865;DHT22;20159;51.072;13.526;2022-09-09T14:36:12;29.90;47.90
33865;DHT22;20159;51.072;13.526;2022-09-09T14:38:38;30.00;47.60
33865;DHT22;20159;51.072;13.526;2022-09-09T14:41:10;30.10;47.40
33865;DHT22;20159;51.072;13.526;2022-09-09T14:43:39;30.10;46.50
33865;DHT22;20159;51.072;13.526;2022-09-09T14:46:06;30.20;47.30
33865;DHT22;20159;51.072;13.526;2022-09-09T14:48:32;30.10;46.20
33865;DHT22;20159;51.072;13.526;2022-09-09T14:51:07;30.10;46.40
33865;DHT22;20159;51.072;13.526;2022-09-09T14:53:34;30.10;46.50
33865;DHT22;20159;51.072;13.526;2022-09-09T14:56:11;30.10;47.20
33865;DHT22;20159;51.072;13.526;2022-09-09T14:58:37;30.10;46.50
33865;DHT22;20159;51.072;13.526;2022-09-09T15:01:15;30.10;46.60
33865;DHT22;20159;51.072;13.526;2022-09-09T15:03:42;30.20;46.30
33865;DHT22;20159;51.072;13.526;2022-09-09T15:06:13;30.30;47.50
33865;DHT22;20159;51.072;13.526;2022-09-09T15:08:41;30.40;46.80
33865;DHT22;20159;51.072;13.526;2022-09-09T15:11:07;30.70;46.80
33865;DHT22;20159;51.072;13.526;2022-09-09T15:13:38;30.90;44.90
33865;DHT22;20159;51.072;13.526;2022-09-09T15:16:12;31.10;44.00
33865;DHT22;20159;51.072;13.526;2022-09-09T15:18:38;31.30;44.30
33865;DHT22;20159;51.072;13.526;2022-09-09T15:21:11;31.40;43.70
33865;DHT22;20159;51.072;13.526;2022-09-09T15:23:37;31.40;43.10
33865;DHT22;20159;51.072;13.526;2022-09-09T15:26:03;31.40;43.00
33865;DHT22;20159;51.072;13.526;2022-09-09T15:28:31;31.30;44.00
33865;DHT22;20159;51.072;13.526;2022-09-09T15:30:58;31.20;42.50
33865;DHT22;20159;51.072;13.526;2022-09-09T15:33:29;31.00;43.10
33865;DHT22;20159;51.072;13.526;2022-09-09T15:35:54;30.80;43.80
33865;DHT22;20159;51.072;13.526;2022-09-09T15:38:20;30.50;43.00
33865;DHT22;20159;51.072;13.526;2022-09-09T15:40:53;30.20;43.20
33865;DHT22;20159;51.072;13.526;2022-09-09T15:43:19;29.90;42.60
33865;DHT22;20159;51.072;13.526;2022-09-09T15:45:46;29.60;43.50
33865;DHT22;20159;51.072;13.526;2022-09-09T15:48:14;29.30;43.70
33865;DHT22;20159;51.072;13.526;2022-09-09T15:50:39;29.00;43.70
33865;DHT22;20159;51.072;13.526;2022-09-09T15:53:05;28.80;44.00
33865;DHT22;20159;51.072;13.526;2022-09-09T15:55:31;28.60;44.40
33865;DHT22;20159;51.072;13.526;2022-09-09T15:57:56;28.30;45.50
33865;DHT22;20159;51.072;13.526;2022-09-09T16:00:23;28.10;46.20
33865;DHT22;20159;51.072;13.526;2022-09-09T16:02:49;27.80;46.00
33865;DHT22;20159;51.072;13.526;2022-09-09T16:05:15;27.60;46.30
33865;DHT22;20159;51.072;13.526;2022-09-09T16:07:41;27.50;47.00
33865;DHT22;20159;51.072;13.526;2022-09-09T16:10:08;27.20;46.20
33865;DHT22;20159;51.072;13.526;2022-09-09T16:12:34;27.10;47.10
33865;DHT22;20159;51.072;13.526;2022-09-09T16:14:59;27.00;48.10
33865;DHT22;20159;51.072;13.526;2022-09-09T16:17:25;26.90;48.50
33865;DHT22;20159;51.072;13.526;2022-09-09T16:19:50;26.90;48.40
33865;DHT22;20159;51.072;13.526;2022-09-09T16:22:16;27.00;48.80
33865;DHT22;20159;51.072;13.526;2022-09-09T16:24:43;27.10;49.00
33865;DHT22;20159;51.072;13.526;2022-09-09T16:27:10;27.30;48.50
33865;DHT22;20159;51.072;13.526;2022-09-09T16:29:36;27.50;48.70
33865;DHT22;20159;51.072;13.526;2022-09-09T16:32:02;27.80;49.00
33865;DHT22;20159;51.072;13.526;2022-09-09T16:34:27;28.00;48.20
33865;DHT22;20159;51.072;13.526;2022-09-09T16:36:53;28.20;47.70
33865;DHT22;20159;51.072;13.526;2022-09-09T16:39:19;28.40;46.90
33865;DHT22;20159;51.072;13.526;2022-09-09T16:41:47;28.70;46.60
33865;DHT22;20159;51.072;13.526;2022-09-09T16:44:15;28.70;46.70
33865;DHT22;20159;51.072;13.526;2022-09-09T16:46:42;28.80;46.60
33865;DHT22;20159;51.072;13.526;2022-09-09T16:49:10;28.80;46.00
33865;DHT22;20159;51.072;13.526;2022-09-09T16:51:43;28.70;46.30
33865;DHT22;20159;51.072;13.526;2022-09-09T16:54:10;28.60;46.50
33865;DHT22;20159;51.072;13.526;2022-09-09T16:56:38;28.40;46.70
33865;DHT22;20159;51.072;13.526;2022-09-09T16:59:08;28.20;46.70
33865;DHT22;20159;51.072;13.526;2022-09-09T17:01:37;27.90;46.70
33865;DHT22;20159;51.072;13.526;2022-09-09T17:04:06;27.70;47.00
33865;DHT22;20159;51.072;13.526;2022-09-09T17:06:33;27.40;47.50
33865;DHT22;20159;51.072;13.526;2022-09-09T17:09:02;27.10;47.70
33865;DHT22;20159;51.072;13.526;2022-09-09T17:11:28;26.90;48.10
33865;DHT22;20159;51.072;13.526;2022-09-09T17:13:55;26.70;48.00
33865;DHT22;20159;51.072;13.526;2022-09-09T17:16:22;26.40;47.70
33865;DHT22;20159;51.072;13.526;2022-09-09T17:18:49;26.20;48.00
33865;DHT22;20159;51.072;13.526;2022-09-09T17:21:18;25.90;48.70
33865;DHT22;20159;51.072;13.526;2022-09-09T17:23:44;25.70;49.00
33865;DHT22;20159;51.072;13.526;2022-09-09T17:26:13;25.40;49.00
33865;DHT22;20159;51.072;13.526;2022-09-09T17:28:39;25.20;49.40
33865;DHT22;20159;51.072;13.526;2022-09-09T17:31:06;25.00;49.90
33865;DHT22;20159;51.072;13.526;2022-09-09T17:33:35;24.80;49.40
33865;DHT22;20159;51.072;13.526;2022-09-09T17:36:02;24.50;49.50
33865;DHT22;20159;51.072;13.526;2022-09-09T17:38:31;24.30;49.20